首页
METAR-TAF:

METAR-TAF

机场 :

空军基地 Cameri

諾瓦拉, 意大利

纬度: 45-31N, 经度: 008-40E, 海拔: 178米

当前天气观测

该预报发布于11小时和24分钟前的17:55 UTC
温度 0°C
湿度 93%
气压 1017 hPa
能见度10公里或以上
1500米以下无云,无积雨云

METAR: LIMN 151755Z /////KT CAVOK 00/M01 Q1017 RMK SKC VIS MIN 9999 BLU

时间: 06:19 (05:19 UTC)

预报

该预报发布于12小时和19分钟前的17:00 UTC
预报有效从15日的 18点(UTC)到 16日的 03点(UTC)
风速5节,风向北转东北
能见度10公里或以上
散云层高于6000英尺

TAF: LIMN 151700Z 1518/1603 02005KT 9999 SCT060

超过4000个机场的气象观测和天气预报(METAR&TAF报告)。

可查询的气象台以黄色和红色小点在地图上表示。

将鼠标移到小点上方,可查看气象台名称。

然后点击查看天气观测和预报。

如需切换地图:点击带黑十字的绿色按钮放大地图;点击带横线的绿色按钮缩小地图;或者点击绿色箭头查看邻近地区的地图。


METAR-TAF: